sensor_id;sensor_type;location;lat;lon;timestamp;P1;durP1;ratioP1;P2;durP2;ratioP2
30249;SDS011;17064;47.974;13.826;2023-03-31T00:03:28;6.32;;;2.47;;
30249;SDS011;17064;47.974;13.826;2023-03-31T00:08:29;4.13;;;2.33;;
30249;SDS011;17064;47.974;13.826;2023-03-31T00:13:34;4.50;;;2.10;;
30249;SDS011;17064;47.974;13.826;2023-03-31T00:18:36;5.55;;;2.00;;
30249;SDS011;17064;47.974;13.826;2023-03-31T00:23:37;8.20;;;2.03;;
30249;SDS011;17064;47.974;13.826;2023-03-31T00:28:38;5.35;;;1.85;;
30249;SDS011;17064;47.974;13.826;2023-03-31T00:33:38;10.63;;;1.98;;
30249;SDS011;17064;47.974;13.826;2023-03-31T00:38:39;5.68;;;2.28;;
30249;SDS011;17064;47.974;13.826;2023-03-31T00:49:13;4.03;;;2.30;;
30249;SDS011;17064;47.974;13.826;2023-03-31T00:54:29;9.50;;;2.38;;
30249;SDS011;17064;47.974;13.826;2023-03-31T00:59:42;2.38;;;1.55;;
30249;SDS011;17064;47.974;13.826;2023-03-31T01:04:49;5.78;;;1.98;;
30249;SDS011;17064;47.974;13.826;2023-03-31T01:09:56;6.05;;;1.77;;
30249;SDS011;17064;47.974;13.826;2023-03-31T01:14:59;6.03;;;1.90;;
30249;SDS011;17064;47.974;13.826;2023-03-31T01:36:29;5.18;;;1.95;;
30249;SDS011;17064;47.974;13.826;2023-03-31T01:46:46;4.45;;;1.85;;
30249;SDS011;17064;47.974;13.826;2023-03-31T01:52:02;6.40;;;1.73;;
30249;SDS011;17064;47.974;13.826;2023-03-31T01:57:15;5.05;;;1.67;;
30249;SDS011;17064;47.974;13.826;2023-03-31T02:02:19;2.70;;;1.70;;
30249;SDS011;17064;47.974;13.826;2023-03-31T02:07:36;3.80;;;1.90;;
30249;SDS011;17064;47.974;13.826;2023-03-31T02:12:42;2.03;;;1.63;;
30249;SDS011;17064;47.974;13.826;2023-03-31T02:17:44;6.32;;;2.08;;
30249;SDS011;17064;47.974;13.826;2023-03-31T02:22:48;3.35;;;1.73;;
30249;SDS011;17064;47.974;13.826;2023-03-31T02:27:54;7.07;;;1.90;;
30249;SDS011;17064;47.974;13.826;2023-03-31T02:32:59;4.55;;;2.17;;
30249;SDS011;17064;47.974;13.826;2023-03-31T02:37:59;5.32;;;2.15;;
30249;SDS011;17064;47.974;13.826;2023-03-31T02:43:01;4.25;;;1.98;;
30249;SDS011;17064;47.974;13.826;2023-03-31T02:48:04;4.25;;;1.85;;
30249;SDS011;17064;47.974;13.826;2023-03-31T03:14:49;6.35;;;2.70;;
30249;SDS011;17064;47.974;13.826;2023-03-31T03:20:01;6.65;;;2.00;;
30249;SDS011;17064;47.974;13.826;2023-03-31T03:25:08;4.57;;;2.13;;
30249;SDS011;17064;47.974;13.826;2023-03-31T03:30:11;5.03;;;2.15;;
30249;SDS011;17064;47.974;13.826;2023-03-31T03:35:13;4.32;;;3.00;;
30249;SDS011;17064;47.974;13.826;2023-03-31T03:40:13;10.23;;;2.40;;
30249;SDS011;17064;47.974;13.826;2023-03-31T03:45:14;4.60;;;2.28;;
30249;SDS011;17064;47.974;13.826;2023-03-31T03:50:15;4.80;;;2.25;;
30249;SDS011;17064;47.974;13.826;2023-03-31T03:55:15;3.92;;;2.38;;
30249;SDS011;17064;47.974;13.826;2023-03-31T04:00:16;7.90;;;2.47;;
30249;SDS011;17064;47.974;13.826;2023-03-31T04:05:17;5.13;;;2.33;;
30249;SDS011;17064;47.974;13.826;2023-03-31T04:10:18;7.15;;;2.35;;
30249;SDS011;17064;47.974;13.826;2023-03-31T04:15:19;3.50;;;2.05;;
30249;SDS011;17064;47.974;13.826;2023-03-31T04:20:19;3.33;;;1.92;;
30249;SDS011;17064;47.974;13.826;2023-03-31T04:25:21;4.50;;;2.03;;
30249;SDS011;17064;47.974;13.826;2023-03-31T04:30:22;5.10;;;2.22;;
30249;SDS011;17064;47.974;13.826;2023-03-31T04:35:29;8.10;;;2.58;;
30249;SDS011;17064;47.974;13.826;2023-03-31T04:40:49;6.45;;;2.30;;
30249;SDS011;17064;47.974;13.826;2023-03-31T04:45:51;7.70;;;3.00;;
30249;SDS011;17064;47.974;13.826;2023-03-31T04:50:52;9.45;;;4.18;;
30249;SDS011;17064;47.974;13.826;2023-03-31T04:55:53;5.00;;;2.55;;
30249;SDS011;17064;47.974;13.826;2023-03-31T05:00:53;7.07;;;2.78;;
30249;SDS011;17064;47.974;13.826;2023-03-31T05:05:54;5.65;;;3.03;;
30249;SDS011;17064;47.974;13.826;2023-03-31T05:10:55;12.40;;;2.63;;
30249;SDS011;17064;47.974;13.826;2023-03-31T05:15:55;4.97;;;2.40;;
30249;SDS011;17064;47.974;13.826;2023-03-31T05:20:56;10.48;;;2.60;;
30249;SDS011;17064;47.974;13.826;2023-03-31T05:25:57;5.57;;;2.67;;
30249;SDS011;17064;47.974;13.826;2023-03-31T05:30:59;11.30;;;2.47;;
30249;SDS011;17064;47.974;13.826;2023-03-31T05:36:01;3.90;;;2.53;;
30249;SDS011;17064;47.974;13.826;2023-03-31T05:41:01;6.15;;;2.50;;
30249;SDS011;17064;47.974;13.826;2023-03-31T05:46:02;4.20;;;2.47;;
30249;SDS011;17064;47.974;13.826;2023-03-31T05:51:03;6.35;;;2.85;;
30249;SDS011;17064;47.974;13.826;2023-03-31T05:56:05;10.57;;;3.50;;
30249;SDS011;17064;47.974;13.826;2023-03-31T06:01:07;8.35;;;2.63;;
30249;SDS011;17064;47.974;13.826;2023-03-31T06:06:13;6.07;;;2.45;;
30249;SDS011;17064;47.974;13.826;2023-03-31T06:11:16;7.07;;;2.45;;
30249;SDS011;17064;47.974;13.826;2023-03-31T06:16:18;5.60;;;3.00;;
30249;SDS011;17064;47.974;13.826;2023-03-31T06:21:19;5.22;;;2.53;;
30249;SDS011;17064;47.974;13.826;2023-03-31T06:26:21;8.85;;;2.67;;
30249;SDS011;17064;47.974;13.826;2023-03-31T06:31:22;4.88;;;2.67;;
30249;SDS011;17064;47.974;13.826;2023-03-31T06:36:23;6.20;;;2.60;;
30249;SDS011;17064;47.974;13.826;2023-03-31T06:41:24;7.65;;;2.63;;
30249;SDS011;17064;47.974;13.826;2023-03-31T06:46:25;3.25;;;2.25;;
30249;SDS011;17064;47.974;13.826;2023-03-31T06:51:26;5.88;;;2.78;;
30249;SDS011;17064;47.974;13.826;2023-03-31T06:56:27;6.82;;;2.63;;
30249;SDS011;17064;47.974;13.826;2023-03-31T07:01:27;8.75;;;2.67;;
30249;SDS011;17064;47.974;13.826;2023-03-31T07:06:28;8.02;;;4.18;;
30249;SDS011;17064;47.974;13.826;2023-03-31T07:11:29;5.53;;;2.08;;
30249;SDS011;17064;47.974;13.826;2023-03-31T07:16:30;9.48;;;2.65;;
30249;SDS011;17064;47.974;13.826;2023-03-31T07:21:31;4.82;;;2.35;;
30249;SDS011;17064;47.974;13.826;2023-03-31T07:26:32;4.82;;;2.60;;
30249;SDS011;17064;47.974;13.826;2023-03-31T07:31:33;5.88;;;2.40;;
30249;SDS011;17064;47.974;13.826;2023-03-31T07:36:34;8.88;;;2.85;;
30249;SDS011;17064;47.974;13.826;2023-03-31T07:41:34;4.68;;;2.40;;
30249;SDS011;17064;47.974;13.826;2023-03-31T07:46:35;4.85;;;2.38;;
30249;SDS011;17064;47.974;13.826;2023-03-31T07:51:36;10.45;;;3.30;;
30249;SDS011;17064;47.974;13.826;2023-03-31T07:56:36;7.47;;;3.20;;
30249;SDS011;17064;47.974;13.826;2023-03-31T08:01:37;4.72;;;2.40;;
30249;SDS011;17064;47.974;13.826;2023-03-31T08:06:38;8.95;;;2.75;;
30249;SDS011;17064;47.974;13.826;2023-03-31T08:11:39;6.57;;;3.33;;
30249;SDS011;17064;47.974;13.826;2023-03-31T08:16:40;13.10;;;5.03;;
30249;SDS011;17064;47.974;13.826;2023-03-31T08:21:40;11.10;;;4.18;;
30249;SDS011;17064;47.974;13.826;2023-03-31T08:26:41;10.38;;;3.33;;
30249;SDS011;17064;47.974;13.826;2023-03-31T08:31:42;8.93;;;2.92;;
30249;SDS011;17064;47.974;13.826;2023-03-31T08:36:43;8.43;;;3.13;;
30249;SDS011;17064;47.974;13.826;2023-03-31T08:41:54;6.07;;;3.15;;
30249;SDS011;17064;47.974;13.826;2023-03-31T08:46:59;5.00;;;2.92;;
30249;SDS011;17064;47.974;13.826;2023-03-31T08:52:03;6.78;;;3.53;;
30249;SDS011;17064;47.974;13.826;2023-03-31T08:57:15;9.52;;;4.20;;
30249;SDS011;17064;47.974;13.826;2023-03-31T09:02:28;17.63;;;7.35;;
30249;SDS011;17064;47.974;13.826;2023-03-31T09:08:12;12.88;;;5.07;;
30249;SDS011;17064;47.974;13.826;2023-03-31T09:13:37;11.45;;;4.60;;
30249;SDS011;17064;47.974;13.826;2023-03-31T09:19:00;11.10;;;4.88;;
30249;SDS011;17064;47.974;13.826;2023-03-31T09:24:03;12.50;;;5.47;;
30249;SDS011;17064;47.974;13.826;2023-03-31T09:29:20;12.75;;;5.07;;
30249;SDS011;17064;47.974;13.826;2023-03-31T09:34:27;16.33;;;6.00;;
30249;SDS011;17064;47.974;13.826;2023-03-31T09:39:31;14.02;;;5.97;;
30249;SDS011;17064;47.974;13.826;2023-03-31T09:44:38;11.77;;;6.80;;
30249;SDS011;17064;47.974;13.826;2023-03-31T09:49:43;14.60;;;6.22;;
30249;SDS011;17064;47.974;13.826;2023-03-31T09:54:46;17.02;;;6.05;;
30249;SDS011;17064;47.974;13.826;2023-03-31T09:59:53;12.70;;;5.63;;
30249;SDS011;17064;47.974;13.826;2023-03-31T10:05:28;10.10;;;5.93;;
30249;SDS011;17064;47.974;13.826;2023-03-31T10:10:31;9.80;;;4.93;;
30249;SDS011;17064;47.974;13.826;2023-03-31T10:15:33;10.93;;;5.80;;
30249;SDS011;17064;47.974;13.826;2023-03-31T10:20:38;13.45;;;5.03;;
30249;SDS011;17064;47.974;13.826;2023-03-31T10:25:43;12.02;;;5.00;;
30249;SDS011;17064;47.974;13.826;2023-03-31T10:31:04;9.20;;;4.50;;
30249;SDS011;17064;47.974;13.826;2023-03-31T10:36:08;16.85;;;5.20;;
30249;SDS011;17064;47.974;13.826;2023-03-31T10:41:27;12.50;;;4.53;;
30249;SDS011;17064;47.974;13.826;2023-03-31T10:51:47;8.80;;;4.05;;
30249;SDS011;17064;47.974;13.826;2023-03-31T10:56:56;14.57;;;5.05;;
30249;SDS011;17064;47.974;13.826;2023-03-31T11:29:18;8.32;;;3.80;;
30249;SDS011;17064;47.974;13.826;2023-03-31T11:45:40;8.50;;;3.78;;
30249;SDS011;17064;47.974;13.826;2023-03-31T11:50:58;11.55;;;3.80;;
30249;SDS011;17064;47.974;13.826;2023-03-31T11:56:08;7.22;;;3.38;;
30249;SDS011;17064;47.974;13.826;2023-03-31T12:11:30;7.95;;;2.83;;
30249;SDS011;17064;47.974;13.826;2023-03-31T12:16:48;6.30;;;3.07;;
30249;SDS011;17064;47.974;13.826;2023-03-31T12:21:55;5.68;;;2.58;;
30249;SDS011;17064;47.974;13.826;2023-03-31T12:27:14;5.63;;;2.58;;
30249;SDS011;17064;47.974;13.826;2023-03-31T12:32:30;3.15;;;2.25;;
30249;SDS011;17064;47.974;13.826;2023-03-31T12:43:29;5.78;;;2.70;;
30249;SDS011;17064;47.974;13.826;2023-03-31T13:10:54;5.68;;;3.28;;
30249;SDS011;17064;47.974;13.826;2023-03-31T13:15:57;5.60;;;3.63;;
30249;SDS011;17064;47.974;13.826;2023-03-31T13:21:01;8.95;;;4.70;;
30249;SDS011;17064;47.974;13.826;2023-03-31T13:26:03;6.03;;;3.45;;
30249;SDS011;17064;47.974;13.826;2023-03-31T13:31:06;6.93;;;3.33;;
30249;SDS011;17064;47.974;13.826;2023-03-31T13:41:35;7.95;;;3.35;;
30249;SDS011;17064;47.974;13.826;2023-03-31T13:52:25;2.65;;;1.98;;
30249;SDS011;17064;47.974;13.826;2023-03-31T14:19:21;3.30;;;2.20;;
30249;SDS011;17064;47.974;13.826;2023-03-31T14:24:29;2.97;;;1.45;;
30249;SDS011;17064;47.974;13.826;2023-03-31T14:34:52;3.47;;;1.10;;
30249;SDS011;17064;47.974;13.826;2023-03-31T14:39:56;4.00;;;1.33;;
30249;SDS011;17064;47.974;13.826;2023-03-31T14:45:02;5.05;;;1.50;;
30249;SDS011;17064;47.974;13.826;2023-03-31T14:50:12;3.42;;;1.20;;
30249;SDS011;17064;47.974;13.826;2023-03-31T14:55:16;3.42;;;1.30;;
30249;SDS011;17064;47.974;13.826;2023-03-31T15:00:23;3.97;;;1.55;;
30249;SDS011;17064;47.974;13.826;2023-03-31T15:05:33;5.35;;;1.70;;
30249;SDS011;17064;47.974;13.826;2023-03-31T15:10:37;3.08;;;1.40;;
30249;SDS011;17064;47.974;13.826;2023-03-31T15:15:41;4.30;;;1.27;;
30249;SDS011;17064;47.974;13.826;2023-03-31T15:20:44;3.63;;;1.15;;
30249;SDS011;17064;47.974;13.826;2023-03-31T15:25:45;1.40;;;1.30;;
30249;SDS011;17064;47.974;13.826;2023-03-31T15:30:47;3.65;;;1.40;;
30249;SDS011;17064;47.974;13.826;2023-03-31T15:40:52;4.70;;;1.55;;
30249;SDS011;17064;47.974;13.826;2023-03-31T15:45:55;2.53;;;1.50;;
30249;SDS011;17064;47.974;13.826;2023-03-31T15:51:15;4.63;;;1.27;;
30249;SDS011;17064;47.974;13.826;2023-03-31T16:01:56;1.80;;;1.30;;
30249;SDS011;17064;47.974;13.826;2023-03-31T16:07:01;5.25;;;0.93;;
30249;SDS011;17064;47.974;13.826;2023-03-31T16:12:11;4.38;;;0.98;;
30249;SDS011;17064;47.974;13.826;2023-03-31T16:17:58;1.45;;;0.95;;
30249;SDS011;17064;47.974;13.826;2023-03-31T16:22:56;3.22;;;1.15;;
30249;SDS011;17064;47.974;13.826;2023-03-31T16:27:59;2.45;;;1.20;;
30249;SDS011;17064;47.974;13.826;2023-03-31T16:33:08;4.43;;;1.08;;
30249;SDS011;17064;47.974;13.826;2023-03-31T16:38:12;3.05;;;1.15;;
30249;SDS011;17064;47.974;13.826;2023-03-31T16:43:22;1.38;;;1.00;;
30249;SDS011;17064;47.974;13.826;2023-03-31T16:48:25;2.22;;;0.90;;
30249;SDS011;17064;47.974;13.826;2023-03-31T16:53:28;1.27;;;0.77;;
30249;SDS011;17064;47.974;13.826;2023-03-31T16:58:30;2.85;;;1.50;;
30249;SDS011;17064;47.974;13.826;2023-03-31T17:03:31;1.88;;;1.00;;
30249;SDS011;17064;47.974;13.826;2023-03-31T17:08:34;1.60;;;0.90;;
30249;SDS011;17064;47.974;13.826;2023-03-31T17:13:37;1.55;;;1.20;;
30249;SDS011;17064;47.974;13.826;2023-03-31T17:18:38;2.97;;;1.65;;
30249;SDS011;17064;47.974;13.826;2023-03-31T17:23:39;7.35;;;3.05;;
30249;SDS011;17064;47.974;13.826;2023-03-31T17:28:41;4.50;;;1.83;;
30249;SDS011;17064;47.974;13.826;2023-03-31T17:33:42;5.60;;;1.40;;
30249;SDS011;17064;47.974;13.826;2023-03-31T17:38:43;3.40;;;1.35;;
30249;SDS011;17064;47.974;13.826;2023-03-31T17:43:45;4.78;;;2.20;;
30249;SDS011;17064;47.974;13.826;2023-03-31T17:48:48;4.00;;;1.70;;
30249;SDS011;17064;47.974;13.826;2023-03-31T17:53:50;5.50;;;1.60;;
30249;SDS011;17064;47.974;13.826;2023-03-31T17:58:51;4.55;;;1.83;;
30249;SDS011;17064;47.974;13.826;2023-03-31T18:03:53;3.55;;;1.25;;
30249;SDS011;17064;47.974;13.826;2023-03-31T18:08:55;4.30;;;1.02;;
30249;SDS011;17064;47.974;13.826;2023-03-31T18:13:56;3.75;;;1.70;;
30249;SDS011;17064;47.974;13.826;2023-03-31T18:19:00;3.67;;;0.80;;
30249;SDS011;17064;47.974;13.826;2023-03-31T18:24:01;3.10;;;1.05;;
30249;SDS011;17064;47.974;13.826;2023-03-31T18:29:02;1.90;;;0.90;;
30249;SDS011;17064;47.974;13.826;2023-03-31T18:34:04;1.92;;;1.02;;
30249;SDS011;17064;47.974;13.826;2023-03-31T18:39:05;3.35;;;1.02;;
30249;SDS011;17064;47.974;13.826;2023-03-31T18:44:06;3.60;;;1.00;;
30249;SDS011;17064;47.974;13.826;2023-03-31T18:49:08;3.53;;;1.23;;
30249;SDS011;17064;47.974;13.826;2023-03-31T18:54:10;1.60;;;1.13;;
30249;SDS011;17064;47.974;13.826;2023-03-31T18:59:11;1.92;;;1.00;;
30249;SDS011;17064;47.974;13.826;2023-03-31T19:04:12;4.15;;;1.60;;
30249;SDS011;17064;47.974;13.826;2023-03-31T19:09:14;4.95;;;1.45;;
30249;SDS011;17064;47.974;13.826;2023-03-31T19:14:15;2.45;;;1.00;;
30249;SDS011;17064;47.974;13.826;2023-03-31T19:19:17;2.15;;;1.40;;
30249;SDS011;17064;47.974;13.826;2023-03-31T19:24:18;1.67;;;1.00;;
30249;SDS011;17064;47.974;13.826;2023-03-31T19:29:19;1.95;;;0.70;;
30249;SDS011;17064;47.974;13.826;2023-03-31T19:34:21;3.15;;;0.55;;
30249;SDS011;17064;47.974;13.826;2023-03-31T19:39:22;2.50;;;0.70;;
30249;SDS011;17064;47.974;13.826;2023-03-31T19:44:25;3.63;;;0.80;;
30249;SDS011;17064;47.974;13.826;2023-03-31T19:49:26;2.22;;;0.80;;
30249;SDS011;17064;47.974;13.826;2023-03-31T19:54:27;2.72;;;0.70;;
30249;SDS011;17064;47.974;13.826;2023-03-31T19:59:28;1.73;;;0.90;;
30249;SDS011;17064;47.974;13.826;2023-03-31T20:04:30;2.25;;;0.60;;
30249;SDS011;17064;47.974;13.826;2023-03-31T20:09:32;2.50;;;0.68;;
30249;SDS011;17064;47.974;13.826;2023-03-31T20:14:33;2.30;;;0.80;;
30249;SDS011;17064;47.974;13.826;2023-03-31T20:19:34;0.82;;;0.50;;
30249;SDS011;17064;47.974;13.826;2023-03-31T20:24:35;3.45;;;0.90;;
30249;SDS011;17064;47.974;13.826;2023-03-31T20:29:37;3.60;;;0.80;;
30249;SDS011;17064;47.974;13.826;2023-03-31T20:34:38;4.85;;;0.80;;
30249;SDS011;17064;47.974;13.826;2023-03-31T20:39:40;2.90;;;0.80;;
30249;SDS011;17064;47.974;13.826;2023-03-31T20:44:41;1.08;;;0.73;;
30249;SDS011;17064;47.974;13.826;2023-03-31T20:49:43;2.45;;;0.70;;
30249;SDS011;17064;47.974;13.826;2023-03-31T20:54:44;1.73;;;0.50;;
30249;SDS011;17064;47.974;13.826;2023-03-31T20:59:45;1.95;;;0.50;;
30249;SDS011;17064;47.974;13.826;2023-03-31T21:04:45;1.48;;;0.73;;
30249;SDS011;17064;47.974;13.826;2023-03-31T21:09:46;2.38;;;0.45;;
30249;SDS011;17064;47.974;13.826;2023-03-31T21:14:47;1.90;;;0.40;;
30249;SDS011;17064;47.974;13.826;2023-03-31T21:19:48;4.75;;;0.95;;
30249;SDS011;17064;47.974;13.826;2023-03-31T21:24:48;2.67;;;0.70;;
30249;SDS011;17064;47.974;13.826;2023-03-31T21:29:50;5.85;;;0.77;;
30249;SDS011;17064;47.974;13.826;2023-03-31T21:34:51;3.03;;;0.30;;
30249;SDS011;17064;47.974;13.826;2023-03-31T21:39:52;2.42;;;0.47;;
30249;SDS011;17064;47.974;13.826;2023-03-31T21:44:52;1.90;;;0.32;;
30249;SDS011;17064;47.974;13.826;2023-03-31T21:49:58;1.40;;;0.43;;
30249;SDS011;17064;47.974;13.826;2023-03-31T21:54:58;2.50;;;0.55;;
30249;SDS011;17064;47.974;13.826;2023-03-31T21:59:59;3.90;;;0.77;;
30249;SDS011;17064;47.974;13.826;2023-03-31T22:05:00;2.88;;;0.73;;
30249;SDS011;17064;47.974;13.826;2023-03-31T22:10:01;4.05;;;0.47;;
30249;SDS011;17064;47.974;13.826;2023-03-31T22:15:02;1.80;;;0.40;;
30249;SDS011;17064;47.974;13.826;2023-03-31T22:20:04;4.07;;;0.57;;
30249;SDS011;17064;47.974;13.826;2023-03-31T22:25:05;1.30;;;0.50;;
30249;SDS011;17064;47.974;13.826;2023-03-31T22:30:07;2.45;;;0.50;;
30249;SDS011;17064;47.974;13.826;2023-03-31T22:35:08;1.65;;;0.32;;
30249;SDS011;17064;47.974;13.826;2023-03-31T22:40:09;1.17;;;0.52;;
30249;SDS011;17064;47.974;13.826;2023-03-31T22:45:10;2.33;;;0.35;;
30249;SDS011;17064;47.974;13.826;2023-03-31T22:50:11;2.90;;;0.50;;
30249;SDS011;17064;47.974;13.826;2023-03-31T22:55:12;1.95;;;0.40;;
30249;SDS011;17064;47.974;13.826;2023-03-31T23:00:12;3.40;;;0.40;;
30249;SDS011;17064;47.974;13.826;2023-03-31T23:05:13;5.15;;;0.85;;
30249;SDS011;17064;47.974;13.826;2023-03-31T23:10:14;5.68;;;0.50;;
30249;SDS011;17064;47.974;13.826;2023-03-31T23:15:15;1.15;;;0.40;;
30249;SDS011;17064;47.974;13.826;2023-03-31T23:20:16;2.08;;;0.47;;
30249;SDS011;17064;47.974;13.826;2023-03-31T23:25:18;3.45;;;0.73;;
30249;SDS011;17064;47.974;13.826;2023-03-31T23:30:19;3.83;;;0.55;;
30249;SDS011;17064;47.974;13.826;2023-03-31T23:35:20;4.32;;;0.52;;
30249;SDS011;17064;47.974;13.826;2023-03-31T23:40:20;1.52;;;0.65;;
30249;SDS011;17064;47.974;13.826;2023-03-31T23:45:21;1.35;;;0.30;;
30249;SDS011;17064;47.974;13.826;2023-03-31T23:50:22;2.88;;;0.40;;
30249;SDS011;17064;47.974;13.826;2023-03-31T23:55:22;3.33;;;0.50;;
